Philip S W Goldson International, Belize

11:58 AM CST on September 04, 2015 (GMT -0600)
Philip S W Goldson International | | Change Station
CLOSE
Current Station
Airport
Location: Belize,
Elevation: 16 ft
Nearby Weather Stations

Elev 16 ft 17.54 °N, 88.31 °W | Updated 58 minutes ago

Scattered Clouds
Scattered Clouds
91 °F
Feels Like 107 °F
N
8
Wind Variable Wind from ESE

Today
High -- | Low -- °F
--% Chance of Precip.
Yesterday
High -- | Low -- °F
Precip. -- in
5:39 AM 6:04 PM
Waning Gibbous, 57% visible
Pressure 29.93 in
Visibility 6.2 miles
Clouds Scattered Clouds 2200 ft
Heat Index 107 °F
Dew Point 79 °F
Humidity 66%
Rainfall 0.00 in
Snow Depth Not available.
UV 14 out of 12
Pollen Not available.
Air Quality Not available.
Flu Activity Not available.
METAR MZBZ 041700Z 11007KT 9999 SCT022 33/26 A2993 Q1013 NOSIG RMK CBTOP-N
Pressure 29.93 in
Visibility 6.2 miles
Clouds Scattered Clouds 2200 ft
Heat Index 107 °F
Dew Point 79 °F
Humidity 66%
Rainfall 0.00 in
Snow Depth Not available.
UV 14 out of 12
Pollen Not available.
Air Quality Not available.
Flu Activity Not available.
METAR MZBZ 041700Z 11007KT 9999 SCT022 33/26 A2993 Q1013 NOSIG RMK CBTOP-N

10-Day Weather Forecast

×

Almanac

Astronomy

Sep. 04, 2015 Rise Set
Actual Time
Civil Twilight
Nautical Twilight
Astronomical Twilight
Moon
Length of Visible Light
Length of Day
Tomorrow will be .
, % of the Moon is Illuminated

Today's Extremes

Country Highs Country Lows

Community

WunderPhotos

Upload Photos

1,852,250 photos uploaded!

WunderBlogs® & News

Nearby

Air Quality

  Air Quality AQ Index Pollutant
Not available.

Snow Depth

Station Depth Elevation

Earthquake Activity

City Distance Mag. Time & Date
Minimum magnitude displayed is 2.5.

Coastal Water Temperatures

Place Temperature

Stations

Nearby Weather Stations

Station Location Temp. Windchill Dew Point Humidity Wind Precip. Elev Updated Type